Time;durP1;ratioP1;P1;durP2;ratioP2;P2;SDS_P1;SDS_P2;PMS_P1;PMS_P2;Temp;Humidity;BMP_temperature;BMP_pressure;BME280_temperature;BME280_humidity;BME280_pressure;Samples;Min_cycle;Max_cycle;Signal;HPM_P1;HPM_P2
2023/08/08 00:01:10;;;;;;;3.45;1.45;;;13.70;99.90;;;;;;5063199;28;20110;-33
2023/08/08 00:03:36;;;;;;;7.53;1.77;;;13.70;99.90;;;;;;5067356;28;20422;-32
2023/08/08 00:06:01;;;;;;;2.85;1.85;;;13.70;99.90;;;;;;5056733;28;20126;-33
2023/08/08 00:08:27;;;;;;;5.50;2.08;;;13.80;99.90;;;;;;5059518;28;20638;-32
2023/08/08 00:10:53;;;;;;;4.38;2.10;;;13.80;99.90;;;;;;5062113;28;20052;-33
2023/08/08 00:13:19;;;;;;;4.32;1.98;;;13.70;99.90;;;;;;5061572;28;20057;-33
2023/08/08 00:15:45;;;;;;;5.80;2.22;;;13.70;99.90;;;;;;5063266;28;20048;-33
2023/08/08 00:18:11;;;;;;;5.18;1.83;;;13.70;99.90;;;;;;5067094;28;20045;-33
2023/08/08 00:20:37;;;;;;;4.30;1.95;;;13.70;99.90;;;;;;5058395;28;20052;-33
2023/08/08 00:23:03;;;;;;;3.55;1.80;;;13.70;99.90;;;;;;5062856;28;20452;-32
2023/08/08 00:25:28;;;;;;;3.78;2.08;;;13.70;99.90;;;;;;5062570;28;20048;-33
2023/08/08 00:27:54;;;;;;;5.25;2.30;;;13.80;99.90;;;;;;5052690;28;20114;-33
2023/08/08 00:30:20;;;;;;;4.70;1.83;;;13.70;99.90;;;;;;5051920;28;20132;-33
2023/08/08 00:32:45;;;;;;;7.60;2.13;;;13.80;99.90;;;;;;5048613;28;20216;-33
2023/08/08 00:35:11;;;;;;;4.25;1.80;;;13.80;99.90;;;;;;5048982;28;20514;-33
2023/08/08 00:37:37;;;;;;;9.27;2.47;;;13.80;99.90;;;;;;5048435;28;20040;-32
2023/08/08 00:40:03;;;;;;;5.57;1.85;;;13.80;99.90;;;;;;5047722;28;20407;-32
2023/08/08 00:42:29;;;;;;;3.63;1.50;;;13.90;99.90;;;;;;5046813;28;20502;-33
2023/08/08 00:44:54;;;;;;;5.90;1.65;;;13.90;99.90;;;;;;5045131;28;20060;-33
2023/08/08 00:47:21;;;;;;;6.50;1.70;;;13.90;99.90;;;;;;5051135;28;20516;-33
2023/08/08 00:49:48;;;;;;;7.45;1.42;;;14.00;99.90;;;;;;5047695;28;20041;-33
2023/08/08 00:52:14;;;;;;;3.50;1.58;;;14.00;99.90;;;;;;5047061;28;20076;-33
2023/08/08 00:54:40;;;;;;;4.07;1.60;;;14.10;99.90;;;;;;5050671;28;20083;-33
2023/08/08 00:57:06;;;;;;;3.95;1.50;;;14.10;99.90;;;;;;5047316;28;20060;-32
2023/08/08 00:59:32;;;;;;;6.38;1.50;;;14.10;99.90;;;;;;5048743;28;20049;-33
2023/08/08 01:01:58;;;;;;;8.57;1.70;;;14.10;99.90;;;;;;5051073;28;20045;-33
2023/08/08 01:04:26;;;;;;;3.35;1.40;;;14.20;99.90;;;;;;5046553;28;20045;-33
2023/08/08 01:07:00;;;;;;;3.85;1.58;;;14.20;99.90;;;;;;5048283;28;20045;-32
2023/08/08 01:09:33;;;;;;;8.05;1.70;;;14.20;99.90;;;;;;5049430;28;20073;-33
2023/08/08 01:12:01;;;;;;;4.05;1.40;;;14.20;99.90;;;;;;5047794;28;20151;-33
2023/08/08 01:14:29;;;;;;;2.63;1.20;;;14.20;99.90;;;;;;5047499;28;20057;-33
2023/08/08 01:16:57;;;;;;;3.58;1.52;;;14.20;99.90;;;;;;5048671;28;20069;-33
2023/08/08 01:19:29;;;;;;;4.07;1.73;;;14.30;99.90;;;;;;5049640;28;20159;-33
2023/08/08 01:22:00;;;;;;;2.90;1.20;;;14.30;99.90;;;;;;5052376;28;20059;-33
2023/08/08 01:24:29;;;;;;;6.28;2.08;;;14.30;99.90;;;;;;5048032;28;20132;-33
2023/08/08 01:26:55;;;;;;;4.68;1.90;;;14.30;99.90;;;;;;5045003;28;20041;-33
2023/08/08 01:29:21;;;;;;;5.47;2.05;;;14.30;99.90;;;;;;5048805;28;20140;-33
2023/08/08 01:31:47;;;;;;;5.78;1.40;;;14.30;99.90;;;;;;5040262;28;20194;-33
2023/08/08 01:34:13;;;;;;;4.38;1.85;;;14.30;99.90;;;;;;5043477;28;20044;-33
2023/08/08 01:36:48;;;;;;;4.70;1.83;;;14.30;99.90;;;;;;5045033;28;20060;-33
2023/08/08 01:39:17;;;;;;;9.07;2.38;;;14.30;99.90;;;;;;5048262;28;20063;-33
2023/08/08 01:41:44;;;;;;;5.10;1.77;;;14.20;99.90;;;;;;5045809;28;20055;-32
2023/08/08 01:44:10;;;;;;;5.63;2.33;;;14.20;99.90;;;;;;5049749;28;20061;-33
2023/08/08 01:46:38;;;;;;;6.40;2.63;;;14.20;99.90;;;;;;5046438;28;20403;-33
2023/08/08 01:49:04;;;;;;;5.28;2.22;;;14.20;99.90;;;;;;5048959;28;20056;-32
2023/08/08 01:51:29;;;;;;;6.40;2.92;;;14.10;99.90;;;;;;5047653;28;20058;-33
2023/08/08 01:53:56;;;;;;;5.80;2.92;;;14.10;99.90;;;;;;5044106;28;20095;-33
2023/08/08 01:56:21;;;;;;;5.63;2.50;;;14.00;99.90;;;;;;5043416;28;20053;-32
2023/08/08 01:58:47;;;;;;;5.30;2.85;;;14.00;99.90;;;;;;5047553;28;20048;-33
2023/08/08 02:01:13;;;;;;;7.35;3.38;;;14.00;99.90;;;;;;5048691;28;20063;-33
2023/08/08 02:03:38;;;;;;;7.70;2.63;;;13.90;99.90;;;;;;5047636;28;20098;-33
2023/08/08 02:06:04;;;;;;;6.70;3.20;;;13.90;99.90;;;;;;5045880;28;20507;-33
2023/08/08 02:08:30;;;;;;;6.30;2.40;;;14.00;99.90;;;;;;5048145;28;20068;-33
2023/08/08 02:10:55;;;;;;;8.00;3.03;;;14.00;99.90;;;;;;5044503;28;20041;-33
2023/08/08 02:13:21;;;;;;;6.55;2.38;;;14.00;99.90;;;;;;5045816;28;20512;-33
2023/08/08 02:15:47;;;;;;;9.90;2.85;;;14.00;99.90;;;;;;5045627;28;20421;-33
2023/08/08 02:18:12;;;;;;;7.13;2.50;;;14.00;99.90;;;;;;5047227;28;20068;-33
2023/08/08 02:20:38;;;;;;;8.15;2.80;;;14.00;99.90;;;;;;5043328;28;20517;-33
2023/08/08 02:23:04;;;;;;;6.93;2.35;;;14.00;99.90;;;;;;5046925;28;20517;-33
2023/08/08 02:25:30;;;;;;;8.77;2.95;;;14.00;99.90;;;;;;5047315;28;20056;-33
2023/08/08 02:27:56;;;;;;;6.25;2.38;;;14.00;99.90;;;;;;5046949;28;20048;-32
2023/08/08 02:30:22;;;;;;;6.63;2.63;;;14.00;99.90;;;;;;5050892;28;20106;-32
2023/08/08 02:32:48;;;;;;;7.68;1.95;;;14.10;99.90;;;;;;5048116;28;20056;-33
2023/08/08 02:35:14;;;;;;;12.10;3.13;;;14.10;99.90;;;;;;5047494;28;20057;-33
2023/08/08 02:37:39;;;;;;;4.60;2.03;;;14.10;99.90;;;;;;5046412;28;20178;-33
2023/08/08 02:40:06;;;;;;;5.72;1.70;;;14.10;99.90;;;;;;5045306;28;20122;-33
2023/08/08 02:42:32;;;;;;;6.07;2.17;;;14.10;99.90;;;;;;5046296;28;20048;-33
2023/08/08 02:44:57;;;;;;;5.88;1.60;;;14.20;99.90;;;;;;5045473;28;20041;-33
2023/08/08 02:47:24;;;;;;;5.88;1.55;;;14.10;99.90;;;;;;5048297;28;20749;-33
2023/08/08 02:49:50;;;;;;;4.93;1.88;;;14.20;99.90;;;;;;5045195;28;20045;-33
2023/08/08 02:52:16;;;;;;;4.00;1.23;;;14.20;99.90;;;;;;5041982;28;20045;-33
2023/08/08 02:54:41;;;;;;;6.70;1.83;;;14.20;99.90;;;;;;5045780;28;20454;-33
2023/08/08 02:57:07;;;;;;;7.03;2.22;;;14.20;99.90;;;;;;5046221;28;20383;-33
2023/08/08 02:59:33;;;;;;;5.72;1.50;;;14.20;99.90;;;;;;5038942;28;20053;-34
2023/08/08 03:01:58;;;;;;;5.55;1.25;;;14.20;99.90;;;;;;5046686;28;20418;-33
2023/08/08 03:04:24;;;;;;;4.97;2.00;;;14.20;99.90;;;;;;5045891;28;20083;-33
2023/08/08 03:06:50;;;;;;;6.68;1.23;;;14.20;99.90;;;;;;5043823;28;20383;-33
2023/08/08 03:09:15;;;;;;;6.47;1.33;;;14.20;99.90;;;;;;5044240;28;20473;-33
2023/08/08 03:11:41;;;;;;;4.45;1.30;;;14.20;99.90;;;;;;5043116;28;20055;-33
2023/08/08 03:14:08;;;;;;;5.00;1.33;;;14.20;99.90;;;;;;5045357;28;20040;-33
2023/08/08 03:16:34;;;;;;;6.30;1.50;;;14.20;99.90;;;;;;5047088;28;20056;-33
2023/08/08 03:19:00;;;;;;;5.35;1.40;;;14.20;99.90;;;;;;5044770;28;20111;-33
2023/08/08 03:21:25;;;;;;;4.25;1.27;;;14.10;99.90;;;;;;5045234;28;20083;-33
2023/08/08 03:23:51;;;;;;;3.95;1.20;;;14.10;99.90;;;;;;5046451;28;20057;-33
2023/08/08 03:26:17;;;;;;;6.97;1.30;;;14.10;99.90;;;;;;5044381;28;20045;-33
2023/08/08 03:28:42;;;;;;;3.45;1.10;;;14.00;99.90;;;;;;5046920;28;20087;-33
2023/08/08 03:31:08;;;;;;;5.22;0.88;;;14.00;99.90;;;;;;5045303;28;20041;-33
2023/08/08 03:33:34;;;;;;;7.65;0.90;;;13.90;99.90;;;;;;5046427;28;20155;-33
2023/08/08 03:35:59;;;;;;;2.67;0.73;;;13.90;99.90;;;;;;5043932;28;20091;-33
2023/08/08 03:38:25;;;;;;;4.40;0.70;;;13.90;99.90;;;;;;5046277;28;20098;-33
2023/08/08 03:40:51;;;;;;;4.57;0.90;;;13.80;99.90;;;;;;5048170;28;20041;-33
2023/08/08 03:43:16;;;;;;;3.38;0.70;;;13.90;99.90;;;;;;5036251;28;20092;-33
2023/08/08 03:45:43;;;;;;;2.47;0.63;;;13.90;99.90;;;;;;5046807;28;20053;-33
2023/08/08 03:48:09;;;;;;;6.43;0.90;;;13.90;99.90;;;;;;5046588;28;20049;-33
2023/08/08 03:50:35;;;;;;;2.85;0.85;;;13.80;99.90;;;;;;5044785;28;20063;-33
2023/08/08 03:53:00;;;;;;;2.03;0.93;;;13.90;99.90;;;;;;5049126;28;20049;-33
2023/08/08 03:55:26;;;;;;;5.38;0.93;;;13.80;99.90;;;;;;5045355;28;20087;-33
2023/08/08 03:57:52;;;;;;;7.47;0.98;;;13.80;99.90;;;;;;5044479;28;20549;-33
2023/08/08 04:00:17;;;;;;;2.00;0.52;;;13.80;99.90;;;;;;5048505;28;20051;-33
2023/08/08 04:02:43;;;;;;;3.08;0.70;;;13.80;99.90;;;;;;5046935;28;20041;-33
2023/08/08 04:05:09;;;;;;;5.80;0.80;;;13.80;99.90;;;;;;5048205;28;20048;-33
2023/08/08 04:07:35;;;;;;;2.70;0.60;;;13.80;99.90;;;;;;5049282;28;20048;-33
2023/08/08 04:10:01;;;;;;;3.67;0.90;;;13.80;99.90;;;;;;5051132;28;20045;-33
2023/08/08 04:12:27;;;;;;;2.17;0.70;;;13.80;99.90;;;;;;5051889;28;20057;-33
2023/08/08 04:14:52;;;;;;;5.07;1.27;;;13.80;99.90;;;;;;5050587;28;20041;-33
2023/08/08 04:17:18;;;;;;;8.95;1.00;;;13.80;99.90;;;;;;5051315;28;20057;-33
2023/08/08 04:19:44;;;;;;;6.78;0.77;;;13.80;99.90;;;;;;5045004;28;20049;-33
2023/08/08 04:22:10;;;;;;;3.13;0.60;;;13.80;99.90;;;;;;5045315;28;20057;-33
2023/08/08 04:24:36;;;;;;;5.93;0.95;;;13.80;99.90;;;;;;5049098;28;20052;-33
2023/08/08 04:27:01;;;;;;;2.65;0.63;;;13.70;99.90;;;;;;5049908;28;20059;-33
2023/08/08 04:29:27;;;;;;;4.63;0.60;;;13.70;99.90;;;;;;5048670;28;20056;-33
2023/08/08 04:31:53;;;;;;;6.15;1.05;;;13.80;99.90;;;;;;5050463;28;20048;-33
2023/08/08 04:34:18;;;;;;;2.88;0.50;;;13.70;99.90;;;;;;5050104;28;20057;-33
2023/08/08 04:36:44;;;;;;;3.38;0.65;;;13.70;99.90;;;;;;5045089;28;20629;-33
2023/08/08 04:39:10;;;;;;;2.80;0.60;;;13.70;99.90;;;;;;5049914;28;20462;-33
2023/08/08 04:41:35;;;;;;;6.00;0.60;;;13.70;99.90;;;;;;5049166;28;20061;-33
2023/08/08 04:44:01;;;;;;;3.20;0.80;;;13.70;99.90;;;;;;5050324;28;20414;-33
2023/08/08 04:46:27;;;;;;;6.72;0.50;;;13.70;99.90;;;;;;5048308;28;20057;-33
2023/08/08 04:48:52;;;;;;;3.90;0.65;;;13.80;99.90;;;;;;5051896;28;20057;-34
2023/08/08 04:51:18;;;;;;;4.35;0.60;;;13.80;99.90;;;;;;5046333;28;20430;-33
2023/08/08 04:53:44;;;;;;;3.30;0.80;;;13.80;99.90;;;;;;5047536;28;20132;-33
2023/08/08 04:56:09;;;;;;;3.50;0.60;;;13.80;99.90;;;;;;5049927;28;20082;-33
2023/08/08 04:58:35;;;;;;;5.18;0.82;;;13.70;99.90;;;;;;5049768;28;20076;-33
2023/08/08 05:01:01;;;;;;;6.28;0.60;;;13.70;99.90;;;;;;5049317;28;20079;-33
2023/08/08 05:03:26;;;;;;;3.53;0.40;;;13.70;99.90;;;;;;5050937;28;20049;-33
2023/08/08 05:05:52;;;;;;;2.88;0.70;;;13.70;99.90;;;;;;5047354;28;20550;-33
2023/08/08 05:08:17;;;;;;;3.47;0.80;;;13.70;99.90;;;;;;5046057;28;20444;-33
2023/08/08 05:10:43;;;;;;;2.30;0.65;;;13.70;99.90;;;;;;5048214;28;20052;-33
2023/08/08 05:13:10;;;;;;;3.20;0.55;;;13.70;99.90;;;;;;5053450;28;20048;-33
2023/08/08 05:15:36;;;;;;;7.05;0.73;;;13.80;99.90;;;;;;5048286;28;20064;-33
2023/08/08 05:18:01;;;;;;;4.10;0.32;;;13.90;99.90;;;;;;5048480;28;20414;-33
2023/08/08 05:20:27;;;;;;;6.00;0.47;;;13.90;99.90;;;;;;5052640;28;20099;-33
2023/08/08 05:22:53;;;;;;;1.95;0.50;;;13.90;99.90;;;;;;5046466;28;20053;-33
2023/08/08 05:25:18;;;;;;;4.35;0.50;;;13.90;99.90;;;;;;5043772;28;20049;-33
2023/08/08 05:27:44;;;;;;;3.40;0.55;;;13.90;99.90;;;;;;5049656;28;20107;-33
2023/08/08 05:30:10;;;;;;;2.35;0.50;;;13.90;99.90;;;;;;5046050;28;20041;-33
2023/08/08 05:32:36;;;;;;;3.22;0.40;;;13.90;99.90;;;;;;5044896;28;20139;-33
2023/08/08 05:35:04;;;;;;;4.32;0.68;;;14.00;99.90;;;;;;5045716;28;20203;-33
2023/08/08 05:37:29;;;;;;;1.70;0.57;;;14.00;99.90;;;;;;5047341;28;20114;-33
2023/08/08 05:39:55;;;;;;;3.70;0.50;;;14.10;99.90;;;;;;5047953;28;20052;-33
2023/08/08 05:42:21;;;;;;;2.78;0.47;;;14.20;99.90;;;;;;5061965;28;20092;-34
2023/08/08 05:44:46;;;;;;;4.18;0.40;;;14.30;99.90;;;;;;5047927;28;20049;-34
2023/08/08 05:47:12;;;;;;;3.15;0.40;;;14.40;99.90;;;;;;5046319;28;20049;-34
2023/08/08 05:49:39;;;;;;;8.45;0.95;;;14.50;99.90;;;;;;5050154;28;20053;-34
2023/08/08 05:52:05;;;;;;;2.92;0.68;;;14.50;99.90;;;;;;5046702;28;20490;-34
2023/08/08 05:54:30;;;;;;;5.45;0.57;;;14.60;99.90;;;;;;5047689;28;20563;-34
2023/08/08 05:56:56;;;;;;;3.42;0.30;;;14.70;99.90;;;;;;5046132;28;20065;-33
2023/08/08 05:59:22;;;;;;;3.90;0.55;;;14.80;99.90;;;;;;5048632;28;20136;-34
2023/08/08 06:01:47;;;;;;;2.58;0.50;;;14.90;99.90;;;;;;5044115;28;20131;-34
2023/08/08 06:04:13;;;;;;;5.25;0.50;;;14.90;99.90;;;;;;5046310;28;20087;-34
2023/08/08 06:06:39;;;;;;;2.85;0.50;;;15.00;99.90;;;;;;5044475;28;20487;-34
2023/08/08 06:09:05;;;;;;;5.53;0.93;;;15.00;99.90;;;;;;5047737;28;20044;-34
2023/08/08 06:11:31;;;;;;;3.13;0.50;;;15.10;99.90;;;;;;5050374;28;20041;-34
2023/08/08 06:13:56;;;;;;;8.55;2.15;;;15.20;99.90;;;;;;5047544;28;20052;-34
2023/08/08 06:16:22;;;;;;;5.43;0.68;;;15.20;99.90;;;;;;5046230;28;20418;-34
2023/08/08 06:18:48;;;;;;;2.53;0.38;;;15.30;99.90;;;;;;5046712;28;20449;-34
2023/08/08 06:21:14;;;;;;;4.22;0.40;;;15.30;99.90;;;;;;5047369;28;20068;-34
2023/08/08 06:23:39;;;;;;;3.08;0.40;;;15.30;99.90;;;;;;5046937;28;20053;-34
2023/08/08 06:26:05;;;;;;;3.30;0.50;;;15.40;99.90;;;;;;5046478;28;20068;-34
2023/08/08 06:28:32;;;;;;;4.88;0.65;;;15.40;99.90;;;;;;5042433;28;20190;-33
2023/08/08 06:31:01;;;;;;;4.40;1.30;;;15.40;99.90;;;;;;5045117;28;20041;-33
2023/08/08 06:33:28;;;;;;;4.50;0.50;;;15.50;99.90;;;;;;5046362;28;20049;-33
2023/08/08 06:35:54;;;;;;;3.67;0.50;;;15.50;99.90;;;;;;5041656;28;20068;-34
2023/08/08 06:38:20;;;;;;;2.83;1.05;;;15.50;99.90;;;;;;5044541;28;20113;-33
2023/08/08 06:40:46;;;;;;;2.80;0.70;;;15.60;99.90;;;;;;5034575;28;20483;-34
2023/08/08 06:43:11;;;;;;;4.32;0.73;;;15.70;99.90;;;;;;5043677;28;20127;-34
2023/08/08 06:45:38;;;;;;;3.78;0.40;;;15.70;99.90;;;;;;5041554;28;20279;-34
2023/08/08 06:48:04;;;;;;;1.95;0.40;;;15.70;99.90;;;;;;5038380;28;20128;-34
2023/08/08 06:50:30;;;;;;;4.78;0.60;;;15.80;99.90;;;;;;5041360;28;20052;-34
2023/08/08 06:52:55;;;;;;;3.50;0.40;;;15.80;99.90;;;;;;5041043;28;20057;-34
2023/08/08 06:55:21;;;;;;;3.28;0.98;;;15.80;99.90;;;;;;5041604;28;20072;-34
2023/08/08 06:57:47;;;;;;;2.75;0.40;;;15.90;99.90;;;;;;5039469;28;20127;-34
2023/08/08 07:00:13;;;;;;;2.72;0.45;;;15.90;99.90;;;;;;5040119;28;20067;-34
2023/08/08 07:02:39;;;;;;;2.03;0.32;;;16.00;99.90;;;;;;5034716;28;20044;-34
2023/08/08 07:05:06;;;;;;;3.17;0.77;;;16.10;99.90;;;;;;5036029;28;20064;-33
2023/08/08 07:07:33;;;;;;;4.20;0.40;;;16.10;99.90;;;;;;5039208;28;20037;-34
2023/08/08 07:09:59;;;;;;;3.50;0.35;;;16.10;99.90;;;;;;5038757;28;20045;-33
2023/08/08 07:12:25;;;;;;;3.28;0.65;;;16.10;99.90;;;;;;5039401;28;20049;-33
2023/08/08 07:14:50;;;;;;;4.20;0.40;;;16.20;99.90;;;;;;5037651;28;20570;-33
2023/08/08 07:17:16;;;;;;;3.00;0.40;;;16.30;99.90;;;;;;5036509;28;20068;-33
2023/08/08 07:19:42;;;;;;;3.38;0.40;;;16.40;99.90;;;;;;5034775;28;20128;-33
2023/08/08 07:22:08;;;;;;;5.68;0.50;;;16.40;99.90;;;;;;5038216;28;20047;-33
2023/08/08 07:24:34;;;;;;;3.88;0.70;;;16.50;99.90;;;;;;5035056;28;20238;-34
2023/08/08 07:26:59;;;;;;;2.47;0.40;;;16.70;99.90;;;;;;5045119;28;20066;-33
2023/08/08 07:29:25;;;;;;;2.60;0.40;;;16.80;99.90;;;;;;5045165;28;20069;-33
2023/08/08 07:31:54;;;;;;;1.70;0.40;;;16.80;99.90;;;;;;5039275;28;20049;-34
2023/08/08 07:34:20;;;;;;;3.28;0.30;;;16.90;99.90;;;;;;5044207;28;20490;-33
2023/08/08 07:36:47;;;;;;;3.55;0.43;;;17.00;99.90;;;;;;5043423;28;20049;-33
2023/08/08 07:39:13;;;;;;;2.97;0.30;;;17.10;99.90;;;;;;5045419;28;20049;-34
2023/08/08 07:41:38;;;;;;;2.53;0.30;;;17.10;99.90;;;;;;5043343;28;20044;-33
2023/08/08 07:44:05;;;;;;;1.67;0.43;;;17.20;99.90;;;;;;5049258;28;20049;-33
2023/08/08 07:46:31;;;;;;;5.85;0.52;;;17.20;99.90;;;;;;5044535;28;20045;-32
2023/08/08 07:48:59;;;;;;;1.88;0.30;;;17.20;99.90;;;;;;5046762;28;20140;-33
2023/08/08 07:51:25;;;;;;;2.63;0.28;;;17.20;99.90;;;;;;5044477;28;20625;-33
2023/08/08 07:53:51;;;;;;;2.10;0.38;;;17.30;99.90;;;;;;5044135;28;20056;-34
2023/08/08 07:56:16;;;;;;;4.55;0.73;;;17.30;99.90;;;;;;5043186;28;20057;-33
2023/08/08 07:58:42;;;;;;;1.80;0.30;;;17.30;99.90;;;;;;5044292;28;20052;-33
2023/08/08 08:01:08;;;;;;;6.15;0.47;;;17.30;99.90;;;;;;5045600;28;20501;-34
2023/08/08 08:03:33;;;;;;;2.25;0.80;;;17.30;99.90;;;;;;5055216;28;20509;-33
2023/08/08 08:05:59;;;;;;;1.50;0.30;;;17.30;99.90;;;;;;5048193;28;20091;-33
2023/08/08 08:08:25;;;;;;;1.08;0.30;;;17.30;99.90;;;;;;5044130;28;20041;-33
2023/08/08 08:10:51;;;;;;;2.85;0.38;;;17.30;99.90;;;;;;5047881;28;20049;-33
2023/08/08 08:13:17;;;;;;;1.08;0.30;;;17.30;99.90;;;;;;5044936;28;20438;-32
2023/08/08 08:15:43;;;;;;;1.77;0.35;;;17.30;99.90;;;;;;5030684;28;20457;-33
2023/08/08 08:18:11;;;;;;;1.83;0.38;;;17.30;99.90;;;;;;5019779;28;20037;-33
2023/08/08 08:20:36;;;;;;;1.08;0.30;;;17.30;99.90;;;;;;5025196;28;20576;-33
2023/08/08 08:23:02;;;;;;;0.50;0.30;;;17.40;99.90;;;;;;5025150;28;20045;-33
2023/08/08 08:25:28;;;;;;;2.90;0.30;;;17.50;99.90;;;;;;5025551;28;20053;-33
2023/08/08 08:27:53;;;;;;;1.90;0.38;;;17.50;99.90;;;;;;5046498;28;20056;-33
2023/08/08 08:30:19;;;;;;;3.85;0.30;;;17.40;99.90;;;;;;5047495;28;20378;-33
2023/08/08 08:32:45;;;;;;;7.68;0.40;;;17.40;99.90;;;;;;5046348;28;20044;-33
2023/08/08 08:35:12;;;;;;;1.02;0.30;;;17.50;99.90;;;;;;5050203;28;20045;-34
2023/08/08 08:37:38;;;;;;;3.40;0.35;;;17.50;99.90;;;;;;5044710;28;20053;-33
2023/08/08 08:40:04;;;;;;;5.65;0.43;;;17.50;99.90;;;;;;5044375;28;20106;-33
2023/08/08 08:42:33;;;;;;;3.35;0.35;;;17.50;99.90;;;;;;5042527;28;20053;-34
2023/08/08 08:45:00;;;;;;;5.47;0.70;;;17.60;99.90;;;;;;5044736;28;20500;-33
2023/08/08 08:47:29;;;;;;;3.38;0.52;;;17.60;99.90;;;;;;5049439;28;20075;-33
2023/08/08 08:49:56;;;;;;;3.63;0.40;;;17.70;99.90;;;;;;5042429;28;20048;-33
2023/08/08 08:52:22;;;;;;;2.28;0.30;;;17.70;99.90;;;;;;5048615;28;20049;-33
2023/08/08 08:54:48;;;;;;;2.83;0.52;;;17.70;99.90;;;;;;5048674;28;20080;-33
2023/08/08 08:57:15;;;;;;;2.17;0.30;;;17.80;99.90;;;;;;5046247;28;20081;-33
2023/08/08 08:59:40;;;;;;;4.50;0.55;;;17.90;99.90;;;;;;5043484;28;20079;-33
2023/08/08 09:02:07;;;;;;;2.55;0.20;;;18.00;99.90;;;;;;5044978;28;20349;-33
2023/08/08 09:04:37;;;;;;;1.60;0.20;;;17.90;99.90;;;;;;5044659;28;20049;-34
2023/08/08 09:07:06;;;;;;;5.22;0.45;;;17.80;99.90;;;;;;5044493;28;20057;-33
2023/08/08 09:09:32;;;;;;;1.08;0.20;;;17.80;99.90;;;;;;5043081;28;20564;-34
2023/08/08 09:11:58;;;;;;;1.60;0.20;;;17.80;99.90;;;;;;5049004;28;20052;-34
2023/08/08 09:14:26;;;;;;;0.75;0.30;;;17.70;99.90;;;;;;5043910;28;20383;-33
2023/08/08 09:16:53;;;;;;;1.65;0.30;;;17.60;99.90;;;;;;5040065;28;20057;-32
2023/08/08 09:19:20;;;;;;;1.48;0.25;;;17.50;99.90;;;;;;5043819;28;20067;-33
2023/08/08 09:21:46;;;;;;;1.30;0.40;;;17.50;99.90;;;;;;5046515;28;20041;-33
2023/08/08 09:24:12;;;;;;;1.63;0.30;;;17.60;99.90;;;;;;5041506;28;20696;-33
2023/08/08 09:26:40;;;;;;;2.58;0.30;;;17.70;99.90;;;;;;5037548;28;20156;-33
2023/08/08 09:29:06;;;;;;;2.78;0.30;;;17.80;99.90;;;;;;5038226;28;20144;-33
2023/08/08 09:31:33;;;;;;;3.92;0.50;;;17.80;99.90;;;;;;5043089;28;20143;-33
2023/08/08 09:34:02;;;;;;;3.50;0.40;;;17.90;99.90;;;;;;5044258;28;20045;-33
2023/08/08 09:36:28;;;;;;;2.33;0.40;;;17.90;99.90;;;;;;5041085;28;20060;-33
2023/08/08 09:38:55;;;;;;;1.40;0.28;;;17.90;99.90;;;;;;5039343;28;20411;-33
2023/08/08 09:41:22;;;;;;;2.17;0.30;;;17.80;99.90;;;;;;5040624;28;20522;-33
2023/08/08 09:43:50;;;;;;;6.15;0.30;;;17.80;99.90;;;;;;5045000;28;20048;-33
2023/08/08 09:46:15;;;;;;;2.03;0.38;;;17.80;99.90;;;;;;5042845;28;20067;-33
2023/08/08 09:48:42;;;;;;;2.50;0.40;;;17.70;99.90;;;;;;5045282;28;20048;-33
2023/08/08 09:51:09;;;;;;;1.40;0.30;;;17.70;99.90;;;;;;5044286;28;20110;-33
2023/08/08 09:53:35;;;;;;;2.22;0.52;;;17.60;99.90;;;;;;5046272;28;20076;-33
2023/08/08 09:56:05;;;;;;;2.10;0.43;;;17.80;99.90;;;;;;5040708;28;20049;-34
2023/08/08 09:58:32;;;;;;;2.53;0.52;;;18.10;99.90;;;;;;5041916;28;20059;-33
2023/08/08 10:00:58;;;;;;;1.67;0.35;;;18.30;99.90;;;;;;5044658;28;20055;-33
2023/08/08 10:03:24;;;;;;;3.08;0.47;;;18.30;99.90;;;;;;5050384;28;20191;-33
2023/08/08 10:05:50;;;;;;;3.47;0.38;;;18.10;99.90;;;;;;5037108;28;20077;-32
2023/08/08 10:08:16;;;;;;;5.00;0.93;;;18.00;99.90;;;;;;5035867;28;20049;-33
2023/08/08 10:10:45;;;;;;;3.95;0.32;;;17.90;99.90;;;;;;5043979;28;20049;-33
2023/08/08 10:13:19;;;;;;;1.30;0.40;;;17.80;99.90;;;;;;5044754;28;20057;-33
2023/08/08 10:15:44;;;;;;;3.15;0.63;;;17.80;99.90;;;;;;5035569;28;20140;-33
2023/08/08 10:18:13;;;;;;;1.77;0.60;;;17.60;99.90;;;;;;5036959;28;20048;-33
2023/08/08 10:20:41;;;;;;;0.75;0.40;;;17.50;99.90;;;;;;5034866;28;21353;-34
2023/08/08 10:23:07;;;;;;;2.42;0.40;;;17.40;99.90;;;;;;5036114;28;20048;-34
2023/08/08 10:25:33;;;;;;;1.02;0.40;;;17.30;99.90;;;;;;5029195;28;20071;-33
2023/08/08 10:28:03;;;;;;;4.38;0.65;;;17.10;99.90;;;;;;5033758;28;20162;-33
2023/08/08 10:30:29;;;;;;;1.77;0.63;;;17.20;99.90;;;;;;5034653;28;20060;-34
2023/08/08 10:32:57;;;;;;;2.90;0.60;;;17.30;99.90;;;;;;5032908;28;20061;-33
2023/08/08 10:35:28;;;;;;;1.95;0.40;;;17.40;99.90;;;;;;5034391;28;20041;-34
2023/08/08 10:37:54;;;;;;;1.70;0.50;;;17.50;99.90;;;;;;5032530;28;20053;-34
2023/08/08 10:40:20;;;;;;;2.47;0.40;;;17.60;99.90;;;;;;5038438;28;20112;-34
2023/08/08 10:42:47;;;;;;;2.10;0.47;;;18.00;99.90;;;;;;5035017;28;20124;-33
2023/08/08 10:45:14;;;;;;;1.70;0.30;;;18.20;99.90;;;;;;5019697;28;20044;-33
2023/08/08 10:47:41;;;;;;;1.75;0.40;;;18.20;99.90;;;;;;5035245;28;20052;-34
2023/08/08 10:50:13;;;;;;;3.83;0.43;;;18.10;99.90;;;;;;5034055;28;21426;-33
2023/08/08 10:52:54;;;;;;;1.05;0.30;;;17.90;99.90;;;;;;5034851;28;20474;-33
2023/08/08 10:55:35;;;;;;;2.45;0.60;;;17.50;99.90;;;;;;5033881;28;20060;-34
2023/08/08 10:58:15;;;;;;;3.05;0.50;;;17.20;99.90;;;;;;5034121;28;20465;-34
2023/08/08 11:00:41;;;;;;;4.07;0.75;;;16.90;99.90;;;;;;5041477;28;20041;-34
2023/08/08 11:03:08;;;;;;;3.40;0.60;;;16.80;99.90;;;;;;5038749;28;20131;-34
2023/08/08 11:05:36;;;;;;;3.17;0.60;;;16.70;99.90;;;;;;5038166;28;20120;-34
2023/08/08 11:08:04;;;;;;;2.40;0.70;;;16.70;99.90;;;;;;5037973;28;20060;-34
2023/08/08 11:10:34;;;;;;;3.22;0.52;;;16.80;99.90;;;;;;5038737;28;20804;-33
2023/08/08 11:13:05;;;;;;;5.68;0.60;;;16.90;99.90;;;;;;5032817;28;20053;-34
2023/08/08 11:15:35;;;;;;;2.92;0.55;;;17.00;99.90;;;;;;5036256;28;20490;-34
2023/08/08 11:18:02;;;;;;;1.65;0.50;;;17.00;99.90;;;;;;5038905;28;20045;-35
2023/08/08 11:20:36;;;;;;;2.58;0.40;;;17.00;99.90;;;;;;5039002;28;20556;-34
2023/08/08 11:23:03;;;;;;;2.92;0.40;;;16.80;99.90;;;;;;5043845;28;20132;-34
2023/08/08 11:25:30;;;;;;;2.28;0.45;;;16.50;99.90;;;;;;5043356;28;20094;-34
2023/08/08 11:27:57;;;;;;;1.52;0.50;;;16.20;99.90;;;;;;5039052;28;20059;-34
2023/08/08 11:30:27;;;;;;;4.10;0.50;;;16.10;99.90;;;;;;5041355;28;20049;-35
2023/08/08 11:32:53;;;;;;;3.17;0.75;;;16.10;99.90;;;;;;5047318;28;20053;-33
2023/08/08 11:35:23;;;;;;;3.35;0.80;;;16.20;99.90;;;;;;5044336;28;20220;-34
2023/08/08 11:37:51;;;;;;;3.70;0.60;;;16.40;99.90;;;;;;5044702;28;20124;-34
2023/08/08 11:40:18;;;;;;;2.97;0.60;;;16.70;99.90;;;;;;5045439;28;20076;-34
2023/08/08 11:42:47;;;;;;;6.30;1.10;;;17.00;99.90;;;;;;5040505;28;20102;-34
2023/08/08 11:45:13;;;;;;;4.18;0.70;;;17.20;99.90;;;;;;5034543;28;20084;-34
2023/08/08 11:47:40;;;;;;;1.92;0.77;;;17.40;99.90;;;;;;5042638;28;20068;-34
2023/08/08 11:50:07;;;;;;;3.78;0.70;;;17.60;99.90;;;;;;5041507;28;20053;-35
2023/08/08 11:52:36;;;;;;;3.05;0.60;;;17.80;99.90;;;;;;5043009;28;20472;-34
2023/08/08 11:55:02;;;;;;;2.70;0.55;;;17.80;99.90;;;;;;5043294;28;20048;-34
2023/08/08 11:57:28;;;;;;;2.05;0.50;;;17.70;99.90;;;;;;5044752;28;20044;-33
2023/08/08 11:59:57;;;;;;;4.20;0.60;;;17.50;99.90;;;;;;5043960;28;20096;-33
2023/08/08 12:02:23;;;;;;;3.05;1.08;;;17.40;99.90;;;;;;5043394;28;20072;-34
2023/08/08 12:04:49;;;;;;;2.47;0.95;;;17.20;99.90;;;;;;5042353;28;20526;-34
2023/08/08 12:07:16;;;;;;;1.42;0.50;;;17.30;99.90;;;;;;5045549;28;20072;-34
2023/08/08 12:09:42;;;;;;;2.83;0.50;;;17.30;99.90;;;;;;5040546;28;20053;-35
2023/08/08 12:12:08;;;;;;;3.05;0.50;;;17.30;99.90;;;;;;5040569;28;20091;-34
2023/08/08 12:14:38;;;;;;;2.25;0.50;;;17.30;99.90;;;;;;5044203;28;20498;-34
2023/08/08 12:17:05;;;;;;;3.45;0.50;;;17.20;99.90;;;;;;5042378;28;20118;-34
2023/08/08 12:19:31;;;;;;;2.95;0.57;;;17.10;99.90;;;;;;5034901;28;20045;-34
2023/08/08 12:21:56;;;;;;;2.75;0.60;;;17.00;99.90;;;;;;5033455;28;20146;-34
2023/08/08 12:24:22;;;;;;;4.13;1.02;;;16.80;99.90;;;;;;5036009;28;20057;-34
2023/08/08 12:26:48;;;;;;;3.95;0.77;;;16.70;99.90;;;;;;5035553;28;20473;-34
2023/08/08 12:29:14;;;;;;;1.25;0.40;;;16.70;99.90;;;;;;5037484;28;20052;-34
2023/08/08 12:31:40;;;;;;;3.35;0.63;;;16.60;99.90;;;;;;5037583;28;20059;-34
2023/08/08 12:34:06;;;;;;;3.13;0.40;;;16.60;99.90;;;;;;5039255;28;20094;-34
2023/08/08 12:36:31;;;;;;;1.50;0.47;;;16.80;99.90;;;;;;5035641;28;20139;-33
2023/08/08 12:38:57;;;;;;;1.38;0.52;;;16.90;99.90;;;;;;5037370;28;20048;-34
2023/08/08 12:41:26;;;;;;;3.78;1.10;;;17.00;99.90;;;;;;5038851;28;20045;-34
2023/08/08 12:43:52;;;;;;;1.92;0.70;;;17.20;99.90;;;;;;5038548;28;20106;-35